Tripoli, Wisconsin
Current Conditions -  °F | °C
As of 4:35 AM on Friday 24 Oct 2014 (Local Time) from KTKV Reporting Station
Moderate Rain Moderate Rain  
Wind Chill: 44°   Ceiling: 100
Heat Index: 44°   Visibility: 0mi
Dew Point: 43°   Wind: 0mph
Humidity: 97%   Direction: NA
Pressure: 30.01"   Gusts: NA
Location:  45.56°N, 89.99°W
Report Text: KTKV 240935Z AUTO 00000KT M1/4SM RA OVC001 07/06 A3001 RMK AO2 T00660062
Loading
Personal Weather Stations






























Interactive Weather Map
Tropical Storm Tracking
New forecast layout! Learn more

10-Day Weather Forecast

Advertisements
Track Severe Weather on mobile